Time;durP1;ratioP1;P1;durP2;ratioP2;P2;SDS_P1;SDS_P2;PMS_P1;PMS_P2;Temp;Humidity;BMP_temperature;BMP_pressure;BME280_temperature;BME280_humidity;BME280_pressure;Samples;Min_cycle;Max_cycle;Signal;HPM_P1;HPM_P2
2023/09/09 00:01:32;;;;;;;13.93;9.13;;;19.60;99.90;;;;;;6137319;22;86423;-73
2023/09/09 00:03:59;;;;;;;10.48;8.00;;;19.60;99.90;;;;;;6112135;23;90560;-74
2023/09/09 00:06:24;;;;;;;13.38;8.98;;;19.50;99.90;;;;;;6113439;22;86579;-75
2023/09/09 00:08:50;;;;;;;10.15;8.38;;;19.50;99.90;;;;;;6111500;22;86785;-73
2023/09/09 00:11:16;;;;;;;12.10;9.82;;;19.50;99.90;;;;;;6113789;22;86449;-73
2023/09/09 00:13:42;;;;;;;12.60;8.88;;;19.40;99.90;;;;;;6113464;23;87570;-75
2023/09/09 00:16:08;;;;;;;14.50;8.55;;;19.40;99.90;;;;;;6112830;23;89719;-73
2023/09/09 00:18:34;;;;;;;9.30;8.40;;;19.30;99.90;;;;;;6136592;22;86559;-75
2023/09/09 00:21:00;;;;;;;11.10;8.25;;;19.30;99.90;;;;;;6111707;22;86980;-73
2023/09/09 00:23:28;;;;;;;12.57;8.43;;;19.40;99.90;;;;;;6112100;23;87943;-75
2023/09/09 00:25:53;;;;;;;11.38;9.10;;;19.40;99.90;;;;;;6136389;22;88388;-73
2023/09/09 00:28:20;;;;;;;14.48;8.57;;;19.30;99.90;;;;;;6112704;23;86606;-74
2023/09/09 00:30:48;;;;;;;13.02;9.00;;;19.30;99.90;;;;;;6112527;23;86463;-73
2023/09/09 00:33:14;;;;;;;17.50;10.05;;;19.20;99.90;;;;;;6113213;22;87324;-73
2023/09/09 00:35:40;;;;;;;15.23;9.80;;;19.20;99.90;;;;;;6110206;22;89805;-74
2023/09/09 00:38:07;;;;;;;10.40;8.82;;;19.20;99.90;;;;;;6113023;23;86567;-73
2023/09/09 00:40:33;;;;;;;13.43;9.38;;;19.10;99.90;;;;;;6111716;22;86541;-73
2023/09/09 00:42:58;;;;;;;10.48;8.18;;;19.10;99.90;;;;;;6114544;22;87278;-74
2023/09/09 00:45:26;;;;;;;16.15;8.35;;;19.10;99.90;;;;;;6113078;23;86920;-74
2023/09/09 00:47:52;;;;;;;16.08;8.63;;;19.00;99.90;;;;;;6113731;22;86535;-73
2023/09/09 00:50:19;;;;;;;12.73;8.52;;;19.00;99.90;;;;;;6112937;23;86120;-74
2023/09/09 00:52:46;;;;;;;11.65;9.60;;;19.00;99.90;;;;;;6116043;22;90539;-73
2023/09/09 00:55:12;;;;;;;13.82;9.45;;;19.00;99.90;;;;;;6143190;22;86319;-74
2023/09/09 00:57:38;;;;;;;13.98;10.25;;;19.00;99.90;;;;;;6141349;22;88388;-75
2023/09/09 01:00:11;;;;;;;14.90;8.80;;;19.00;99.90;;;;;;6118654;22;86316;-74
2023/09/09 01:02:40;;;;;;;13.82;9.82;;;18.90;99.90;;;;;;6128900;22;87429;-74
2023/09/09 01:05:07;;;;;;;15.63;9.95;;;18.90;99.90;;;;;;6140134;22;89967;-74
2023/09/09 01:07:49;;;;;;;17.85;10.50;;;18.90;99.90;;;;;;6141622;22;86583;-72
2023/09/09 01:10:16;;;;;;;16.52;10.23;;;18.80;99.90;;;;;;6141068;22;86141;-74
2023/09/09 01:12:42;;;;;;;21.88;11.00;;;18.80;99.90;;;;;;6142060;22;86086;-74
2023/09/09 01:15:11;;;;;;;13.15;9.40;;;18.80;99.90;;;;;;6140531;22;87378;-74
2023/09/09 01:17:38;;;;;;;12.90;8.88;;;18.80;99.90;;;;;;6140541;22;86524;-74
2023/09/09 01:20:14;;;;;;;15.63;10.45;;;18.70;99.90;;;;;;6141938;22;86618;-74
2023/09/09 01:22:43;;;;;;;18.05;10.80;;;18.70;99.90;;;;;;6141968;22;86750;-72
2023/09/09 01:25:12;;;;;;;17.20;11.95;;;18.70;99.90;;;;;;6142344;22;87101;-74
2023/09/09 01:27:38;;;;;;;15.70;11.35;;;18.70;99.90;;;;;;6140944;22;86669;-73
2023/09/09 01:30:04;;;;;;;16.75;11.77;;;18.60;99.90;;;;;;6140412;22;86648;-74
2023/09/09 01:32:30;;;;;;;20.13;13.27;;;18.60;99.90;;;;;;6140238;22;91081;-72
2023/09/09 01:34:58;;;;;;;23.58;12.50;;;18.60;99.90;;;;;;6141726;22;87442;-72
2023/09/09 01:37:23;;;;;;;18.73;12.07;;;18.50;99.90;;;;;;6140748;22;87233;-74
2023/09/09 01:39:49;;;;;;;15.80;11.38;;;18.50;99.90;;;;;;6140936;22;86279;-73
2023/09/09 01:42:15;;;;;;;16.00;11.60;;;18.50;99.90;;;;;;6141528;22;87305;-73
2023/09/09 01:44:44;;;;;;;15.02;10.82;;;18.50;99.90;;;;;;6124482;22;89324;-73
2023/09/09 01:47:10;;;;;;;17.63;10.98;;;18.40;99.90;;;;;;6112033;22;87196;-73
2023/09/09 01:49:36;;;;;;;14.38;9.80;;;18.40;99.90;;;;;;6111574;22;86610;-73
2023/09/09 01:52:02;;;;;;;16.67;10.27;;;18.30;99.90;;;;;;6113394;23;86639;-74
2023/09/09 01:54:28;;;;;;;19.30;10.82;;;18.30;99.90;;;;;;6110493;22;89860;-72
2023/09/09 01:56:53;;;;;;;17.88;11.45;;;18.30;99.90;;;;;;6132971;22;86887;-72
2023/09/09 01:59:19;;;;;;;18.13;10.57;;;18.30;99.90;;;;;;6141295;22;86388;-73
2023/09/09 02:01:45;;;;;;;17.95;10.75;;;18.20;99.90;;;;;;6166391;22;90044;-73
2023/09/09 02:04:19;;;;;;;25.05;12.27;;;18.20;99.90;;;;;;6167298;22;90132;-72
2023/09/09 02:06:47;;;;;;;17.85;10.95;;;18.10;99.90;;;;;;6142728;22;88432;-72
2023/09/09 02:09:13;;;;;;;18.90;10.48;;;18.10;99.90;;;;;;6139969;22;86853;-73
2023/09/09 02:11:39;;;;;;;15.55;10.40;;;18.10;99.90;;;;;;6140426;22;89200;-74
2023/09/09 02:14:04;;;;;;;16.15;11.02;;;18.10;99.90;;;;;;6140441;22;89552;-74
2023/09/09 02:16:31;;;;;;;21.35;11.98;;;18.00;99.90;;;;;;6140667;22;86804;-74
2023/09/09 02:18:57;;;;;;;21.23;12.57;;;18.10;99.90;;;;;;6141516;22;85938;-73
2023/09/09 02:21:23;;;;;;;26.25;13.07;;;18.00;99.90;;;;;;6137909;22;90752;-74
2023/09/09 02:23:49;;;;;;;17.40;11.65;;;18.00;99.90;;;;;;6141624;22;86824;-73
2023/09/09 02:26:15;;;;;;;14.73;10.07;;;18.00;99.90;;;;;;6141047;22;86771;-72
2023/09/09 02:28:40;;;;;;;21.88;11.98;;;18.00;99.90;;;;;;6140009;22;86501;-74
2023/09/09 02:31:06;;;;;;;18.42;12.38;;;18.00;99.90;;;;;;6143123;22;86396;-72
2023/09/09 02:33:32;;;;;;;23.85;13.00;;;18.00;99.90;;;;;;6142051;22;86191;-72
2023/09/09 02:36:00;;;;;;;15.07;11.52;;;17.90;99.90;;;;;;6165892;22;86564;-74
2023/09/09 02:38:27;;;;;;;24.23;11.60;;;17.90;99.90;;;;;;6142371;22;86463;-74
2023/09/09 02:40:52;;;;;;;16.83;11.43;;;17.90;99.90;;;;;;6142493;22;87467;-72
2023/09/09 02:43:18;;;;;;;16.25;10.95;;;17.90;99.90;;;;;;6141153;22;89844;-74
2023/09/09 02:45:44;;;;;;;17.30;11.07;;;17.90;99.90;;;;;;6143066;22;87656;-72
2023/09/09 02:48:09;;;;;;;15.52;11.80;;;17.90;99.90;;;;;;6142081;22;86467;-74
2023/09/09 02:50:35;;;;;;;16.50;12.27;;;17.80;99.90;;;;;;6141477;22;87502;-72
2023/09/09 02:53:01;;;;;;;16.48;11.30;;;17.80;99.90;;;;;;6139093;22;89547;-74
2023/09/09 02:55:27;;;;;;;20.48;11.07;;;17.80;99.90;;;;;;6140482;22;86365;-72
2023/09/09 02:57:53;;;;;;;28.08;11.90;;;17.80;99.90;;;;;;6141063;22;87019;-71
2023/09/09 03:00:18;;;;;;;22.40;12.32;;;17.80;99.90;;;;;;6140723;22;87188;-74
2023/09/09 03:02:44;;;;;;;19.23;11.25;;;17.70;99.90;;;;;;6142116;22;86282;-73
2023/09/09 03:05:10;;;;;;;18.00;10.95;;;17.70;99.90;;;;;;6140077;22;86199;-72
2023/09/09 03:07:37;;;;;;;22.42;11.43;;;17.70;99.90;;;;;;6141714;22;86214;-72
2023/09/09 03:10:03;;;;;;;17.75;11.50;;;17.70;99.90;;;;;;6141946;22;90025;-73
2023/09/09 03:12:28;;;;;;;18.75;11.20;;;17.60;99.90;;;;;;6139809;22;90664;-74
2023/09/09 03:14:54;;;;;;;16.88;11.27;;;17.70;99.90;;;;;;6142859;22;86282;-72
2023/09/09 03:17:20;;;;;;;21.42;11.38;;;17.60;99.90;;;;;;6140724;22;86047;-74
2023/09/09 03:19:45;;;;;;;16.33;11.10;;;17.60;99.90;;;;;;6142605;22;86460;-72
2023/09/09 03:22:11;;;;;;;16.50;10.20;;;17.60;99.90;;;;;;6142899;22;86766;-72
2023/09/09 03:24:37;;;;;;;16.58;9.65;;;17.50;99.90;;;;;;6142146;22;86469;-73
2023/09/09 03:27:02;;;;;;;20.92;11.13;;;17.50;99.90;;;;;;6142602;22;86007;-74
2023/09/09 03:29:28;;;;;;;26.23;10.82;;;17.50;99.90;;;;;;6138972;22;89996;-73
2023/09/09 03:31:54;;;;;;;17.88;10.90;;;17.50;99.90;;;;;;6140417;22;89995;-72
2023/09/09 03:34:19;;;;;;;18.13;10.60;;;17.40;99.90;;;;;;6165872;22;86452;-72
2023/09/09 03:36:45;;;;;;;19.02;10.55;;;17.40;99.90;;;;;;6167165;22;87142;-73
2023/09/09 03:39:11;;;;;;;17.25;10.30;;;17.40;99.90;;;;;;6141524;22;86004;-72
2023/09/09 03:41:39;;;;;;;16.23;10.13;;;17.40;99.90;;;;;;6140404;22;88490;-74
2023/09/09 03:44:05;;;;;;;20.38;10.70;;;17.30;99.90;;;;;;6141055;22;87602;-74
2023/09/09 03:46:31;;;;;;;16.33;10.02;;;17.30;99.90;;;;;;6141803;22;86365;-73
2023/09/09 03:48:56;;;;;;;20.85;11.57;;;17.30;99.90;;;;;;6142861;22;86232;-73
2023/09/09 03:51:22;;;;;;;22.95;11.02;;;17.30;99.90;;;;;;6140258;22;89688;-74
2023/09/09 03:53:48;;;;;;;20.08;11.00;;;17.30;99.90;;;;;;6141860;22;85857;-74
2023/09/09 03:56:18;;;;;;;21.45;12.40;;;17.20;99.90;;;;;;6141303;22;86305;-73
2023/09/09 03:58:44;;;;;;;21.33;11.77;;;17.20;99.90;;;;;;6141626;22;87620;-72
2023/09/09 04:01:11;;;;;;;16.48;10.32;;;17.20;99.90;;;;;;6142329;22;86432;-73
2023/09/09 04:03:38;;;;;;;24.08;11.85;;;17.20;99.90;;;;;;6141272;22;85945;-72
2023/09/09 04:06:06;;;;;;;15.43;10.30;;;17.10;99.90;;;;;;6139452;22;86535;-74
2023/09/09 04:08:33;;;;;;;19.48;11.80;;;17.10;99.90;;;;;;6139138;22;90369;-74
2023/09/09 04:10:59;;;;;;;19.65;12.48;;;17.10;99.90;;;;;;6140768;22;88364;-72
2023/09/09 04:13:27;;;;;;;23.70;13.38;;;17.10;99.90;;;;;;6141812;22;86359;-73
2023/09/09 04:15:54;;;;;;;20.58;10.98;;;17.10;99.90;;;;;;6141772;22;86021;-72
2023/09/09 04:18:19;;;;;;;16.27;10.90;;;17.10;99.90;;;;;;6140424;22;89945;-72
2023/09/09 04:20:45;;;;;;;21.92;10.43;;;17.00;99.90;;;;;;6142117;22;86559;-72
2023/09/09 04:23:11;;;;;;;22.73;11.15;;;17.00;99.90;;;;;;6139891;22;87279;-74
2023/09/09 04:25:37;;;;;;;16.95;11.10;;;17.00;99.90;;;;;;6140273;22;87094;-73
2023/09/09 04:28:03;;;;;;;21.05;11.55;;;17.00;99.90;;;;;;6141020;22;87032;-72
2023/09/09 04:30:29;;;;;;;25.80;12.05;;;17.00;99.90;;;;;;6165231;22;89951;-73
2023/09/09 04:32:54;;;;;;;19.95;11.07;;;17.00;99.90;;;;;;6140261;22;86432;-73
2023/09/09 04:35:20;;;;;;;24.35;11.68;;;16.90;99.90;;;;;;6139816;22;86697;-74
2023/09/09 04:37:46;;;;;;;26.05;11.60;;;16.90;99.90;;;;;;6141158;22;86163;-74
2023/09/09 04:40:12;;;;;;;26.55;13.00;;;16.90;99.90;;;;;;6140978;22;86395;-72
2023/09/09 04:42:55;;;;;;;21.35;11.77;;;16.90;99.90;;;;;;6142182;22;86413;-72
2023/09/09 04:45:23;;;;;;;24.98;12.80;;;16.80;99.90;;;;;;6141907;22;87164;-74
2023/09/09 04:47:50;;;;;;;15.32;11.43;;;16.80;99.90;;;;;;6142679;22;87386;-73
2023/09/09 04:50:17;;;;;;;31.58;12.38;;;16.80;99.90;;;;;;6141096;22;86600;-72
2023/09/09 04:52:42;;;;;;;18.83;13.07;;;16.80;99.90;;;;;;6164963;22;87366;-72
2023/09/09 04:55:08;;;;;;;22.63;12.60;;;16.80;99.90;;;;;;6141059;22;86310;-71
2023/09/09 04:57:34;;;;;;;15.85;12.10;;;16.70;99.90;;;;;;6141744;22;86826;-74
2023/09/09 05:00:02;;;;;;;20.58;12.63;;;16.70;99.90;;;;;;6141515;22;86937;-72
2023/09/09 05:02:28;;;;;;;23.20;12.95;;;16.70;99.90;;;;;;6141768;22;86358;-74
2023/09/09 05:04:54;;;;;;;25.15;12.95;;;16.70;99.90;;;;;;6137574;22;86215;-74
2023/09/09 05:07:22;;;;;;;24.48;14.32;;;16.70;99.90;;;;;;6160867;22;89040;-73
2023/09/09 05:09:48;;;;;;;26.75;13.95;;;16.70;99.90;;;;;;6161231;22;88114;-74
2023/09/09 05:12:13;;;;;;;24.95;14.15;;;16.70;99.90;;;;;;6138693;22;86352;-73
2023/09/09 05:14:39;;;;;;;30.50;14.45;;;16.60;99.90;;;;;;6141201;22;86363;-74
2023/09/09 05:17:05;;;;;;;27.90;13.63;;;16.60;99.90;;;;;;6140756;22;86439;-72
2023/09/09 05:19:31;;;;;;;23.38;14.02;;;16.60;99.90;;;;;;6139493;22;89513;-73
2023/09/09 05:21:56;;;;;;;26.20;13.70;;;16.60;99.90;;;;;;6142417;22;86380;-73
2023/09/09 05:24:22;;;;;;;23.23;14.38;;;16.60;99.90;;;;;;6141602;22;86407;-72
2023/09/09 05:26:48;;;;;;;22.38;13.77;;;16.60;99.90;;;;;;6140655;22;86635;-72
2023/09/09 05:29:13;;;;;;;23.90;12.43;;;16.60;99.90;;;;;;6140047;22;86833;-72
2023/09/09 05:31:39;;;;;;;25.02;12.77;;;16.60;99.90;;;;;;6139813;22;85788;-73
2023/09/09 05:34:05;;;;;;;27.85;12.80;;;16.60;99.90;;;;;;6141333;22;86161;-74
2023/09/09 05:36:30;;;;;;;25.40;13.05;;;16.70;99.90;;;;;;6140571;22;87945;-72
2023/09/09 05:38:59;;;;;;;23.70;12.50;;;16.70;99.90;;;;;;6141024;22;86700;-73
2023/09/09 05:41:29;;;;;;;21.63;13.88;;;16.70;99.90;;;;;;6140535;22;86656;-74
2023/09/09 05:43:55;;;;;;;24.77;15.45;;;16.80;99.90;;;;;;6140862;22;86397;-72
2023/09/09 05:46:22;;;;;;;29.02;15.57;;;16.80;99.90;;;;;;6140337;22;88398;-72
2023/09/09 05:48:48;;;;;;;22.58;14.38;;;16.80;99.90;;;;;;6138257;22;89187;-72
2023/09/09 05:51:14;;;;;;;29.75;15.93;;;16.80;99.90;;;;;;6140204;22;86302;-73
2023/09/09 05:53:41;;;;;;;23.13;16.23;;;16.90;99.90;;;;;;6139286;22;87761;-72
2023/09/09 05:56:07;;;;;;;23.65;16.65;;;16.90;99.90;;;;;;6139764;22;86314;-74
2023/09/09 05:58:35;;;;;;;30.67;18.13;;;17.00;99.90;;;;;;6140255;22;86763;-74
2023/09/09 06:01:01;;;;;;;45.85;22.67;;;17.00;99.90;;;;;;6140623;22;87454;-72
2023/09/09 06:03:27;;;;;;;34.83;24.92;;;17.10;99.90;;;;;;6141013;22;86204;-73
2023/09/09 06:05:52;;;;;;;39.40;23.42;;;17.10;99.90;;;;;;6138783;22;90363;-72
2023/09/09 06:08:18;;;;;;;39.35;23.17;;;17.20;99.90;;;;;;6138901;22;89686;-72
2023/09/09 06:10:44;;;;;;;31.58;20.13;;;17.20;99.90;;;;;;6134368;22;86133;-74
2023/09/09 06:13:10;;;;;;;36.90;22.33;;;17.30;99.90;;;;;;6109950;23;87216;-72
2023/09/09 06:15:35;;;;;;;27.10;19.63;;;17.40;99.90;;;;;;6139227;22;87252;-75
2023/09/09 06:18:01;;;;;;;31.05;20.88;;;17.50;99.90;;;;;;6138866;22;89717;-73
2023/09/09 06:20:27;;;;;;;35.50;22.38;;;17.50;99.90;;;;;;6138546;22;86314;-72
2023/09/09 06:22:55;;;;;;;38.70;24.42;;;17.60;99.90;;;;;;6132817;22;86938;-73
2023/09/09 06:25:23;;;;;;;38.55;23.83;;;17.70;99.90;;;;;;6109912;22;88806;-73
2023/09/09 06:27:48;;;;;;;39.42;23.88;;;17.80;99.90;;;;;;6140513;22;86302;-72
2023/09/09 06:30:14;;;;;;;37.13;22.48;;;17.90;99.90;;;;;;6141198;22;87074;-76
2023/09/09 06:32:40;;;;;;;44.92;23.65;;;17.90;99.90;;;;;;6142089;22;86349;-73
2023/09/09 06:35:07;;;;;;;36.13;24.40;;;18.00;99.90;;;;;;6141381;22;87407;-74
2023/09/09 06:37:32;;;;;;;37.67;23.95;;;18.10;99.90;;;;;;6140918;22;87311;-74
2023/09/09 06:39:58;;;;;;;46.35;25.10;;;18.20;99.90;;;;;;6140968;22;87743;-75
2023/09/09 06:42:23;;;;;;;39.22;23.63;;;18.30;99.90;;;;;;6142117;22;87078;-74
2023/09/09 06:44:49;;;;;;;38.55;25.48;;;18.40;99.90;;;;;;6142340;22;86672;-74
2023/09/09 06:47:15;;;;;;;38.17;27.00;;;18.50;99.90;;;;;;6139737;22;90399;-74
2023/09/09 06:49:41;;;;;;;43.92;26.85;;;18.60;99.90;;;;;;6140868;22;85819;-73
2023/09/09 06:52:14;;;;;;;50.35;28.92;;;18.70;99.90;;;;;;6141067;22;86907;-73
2023/09/09 06:54:39;;;;;;;53.30;29.00;;;18.80;99.90;;;;;;6111815;22;90766;-72
2023/09/09 06:57:05;;;;;;;52.03;30.92;;;18.90;99.90;;;;;;6134522;22;86818;-74
2023/09/09 06:59:31;;;;;;;56.40;30.30;;;19.00;99.90;;;;;;6143920;22;86250;-75
2023/09/09 07:01:56;;;;;;;64.85;29.67;;;19.10;99.90;;;;;;6143788;22;85914;-76
2023/09/09 07:04:22;;;;;;;51.33;29.52;;;19.20;99.90;;;;;;6142311;22;86558;-78
2023/09/09 07:06:47;;;;;;;59.58;32.30;;;19.30;99.90;;;;;;6144060;22;86667;-73
2023/09/09 07:09:13;;;;;;;53.25;30.70;;;19.30;99.90;;;;;;6143256;22;87466;-78
2023/09/09 07:11:39;;;;;;;45.25;28.45;;;19.40;99.90;;;;;;6166053;22;85982;-72
2023/09/09 07:14:07;;;;;;;46.50;30.00;;;19.60;99.90;;;;;;6142552;22;86514;-77
2023/09/09 07:16:34;;;;;;;48.90;32.53;;;19.70;99.90;;;;;;6140866;22;86575;-78
2023/09/09 07:19:00;;;;;;;61.78;37.03;;;19.80;99.90;;;;;;6142475;22;86559;-74
2023/09/09 07:21:26;;;;;;;58.42;36.50;;;19.90;99.90;;;;;;6114033;22;86872;-71
2023/09/09 07:23:51;;;;;;;60.92;38.80;;;20.00;99.90;;;;;;6130565;22;90169;-75
2023/09/09 07:26:18;;;;;;;53.67;36.08;;;20.10;99.90;;;;;;6140353;22;89963;-75
2023/09/09 07:28:43;;;;;;;54.05;37.17;;;20.20;99.90;;;;;;6139791;22;87198;-75
2023/09/09 07:31:09;;;;;;;60.40;39.75;;;20.40;99.90;;;;;;6142573;22;86265;-73
2023/09/09 07:33:36;;;;;;;63.58;42.90;;;20.40;99.90;;;;;;6112982;22;90102;-75
2023/09/09 07:36:01;;;;;;;76.65;46.42;;;20.60;99.90;;;;;;6134892;22;86928;-74
2023/09/09 07:38:27;;;;;;;75.65;48.40;;;20.60;99.90;;;;;;6143153;22;86434;-75
2023/09/09 07:40:57;;;;;;;77.78;48.40;;;20.80;99.90;;;;;;6133889;22;86463;-74
2023/09/09 07:43:23;;;;;;;68.55;47.83;;;20.90;99.90;;;;;;6112398;22;86459;-74
2023/09/09 07:45:50;;;;;;;75.38;48.92;;;20.90;99.90;;;;;;6141598;22;86977;-76
2023/09/09 07:48:16;;;;;;;68.05;44.65;;;21.00;99.90;;;;;;6142568;22;86133;-74
2023/09/09 07:50:48;;;;;;;84.43;54.78;;;21.10;99.90;;;;;;6140388;22;86812;-77
2023/09/09 07:53:36;;;;;;;76.77;55.23;;;21.30;99.90;;;;;;6141323;22;86978;-75
2023/09/09 07:56:05;;;;;;;81.05;54.42;;;21.40;99.90;;;;;;6166425;22;90162;-78
2023/09/09 07:58:33;;;;;;;80.55;54.38;;;21.50;99.90;;;;;;6142362;22;86893;-77
2023/09/09 08:01:05;;;;;;;78.25;53.08;;;21.70;99.90;;;;;;6161880;22;86800;-78
2023/09/09 08:03:32;;;;;;;86.03;56.88;;;21.70;99.90;;;;;;6157517;22;90217;-79
2023/09/09 08:06:02;;;;;;;83.13;57.40;;;21.80;99.90;;;;;;6157648;22;86811;-79
2023/09/09 08:08:30;;;;;;;82.35;57.05;;;21.90;99.90;;;;;;6158350;22;87008;-79
2023/09/09 08:10:56;;;;;;;87.32;58.55;;;22.00;99.90;;;;;;6152175;22;86689;-79
2023/09/09 08:13:23;;;;;;;81.53;57.75;;;22.10;99.90;;;;;;6150936;22;87507;-80
2023/09/09 08:15:48;;;;;;;85.78;57.85;;;22.20;99.90;;;;;;6147043;22;86761;-80
2023/09/09 08:18:14;;;;;;;82.90;56.67;;;22.30;99.90;;;;;;6147473;22;86383;-79
2023/09/09 08:20:40;;;;;;;75.65;55.55;;;22.40;99.90;;;;;;6171590;22;86525;-80
2023/09/09 08:23:07;;;;;;;76.75;56.47;;;22.50;99.90;;;;;;6145382;22;86500;-80
2023/09/09 08:25:34;;;;;;;81.22;56.67;;;22.60;99.90;;;;;;6142654;22;89919;-79
2023/09/09 08:28:01;;;;;;;76.13;54.13;;;22.70;99.90;;;;;;6142976;22;87853;-80
2023/09/09 08:30:27;;;;;;;74.65;53.17;;;22.80;99.90;;;;;;6141777;22;87098;-82
2023/09/09 08:32:53;;;;;;;73.72;50.78;;;22.90;99.90;;;;;;6143230;22;88508;-81
2023/09/09 08:35:19;;;;;;;64.85;47.55;;;23.00;99.90;;;;;;6141446;22;86457;-79
2023/09/09 08:37:47;;;;;;;68.88;48.15;;;23.20;99.90;;;;;;6140543;22;87408;-80
2023/09/09 08:40:13;;;;;;;66.45;46.38;;;23.40;99.90;;;;;;6167337;22;87256;-79
2023/09/09 08:43:13;;;;;;;61.53;46.47;;;23.50;99.90;;;;;;6139945;22;89749;-82
2023/09/09 08:45:42;;;;;;;57.28;42.63;;;23.60;99.60;;;;;;6142570;22;86041;-78
2023/09/09 08:48:13;;;;;;;57.70;43.78;;;23.80;99.60;;;;;;6167857;22;87221;-81
2023/09/09 08:50:39;;;;;;;56.70;42.03;;;24.00;99.50;;;;;;6141960;22;87910;-79
2023/09/09 08:53:06;;;;;;;58.72;41.30;;;24.20;99.40;;;;;;6143151;22;87506;-83
2023/09/09 08:55:37;;;;;;;49.38;37.55;;;24.30;98.90;;;;;;6141136;22;89620;-80
2023/09/09 08:58:03;;;;;;;48.63;35.78;;;24.50;99.00;;;;;;6144139;22;86334;-82
2023/09/09 09:00:45;;;;;;;57.83;40.33;;;24.70;97.90;;;;;;6144069;22;86337;-81
2023/09/09 09:03:12;;;;;;;48.53;35.78;;;24.90;97.90;;;;;;6141824;22;90442;-82
2023/09/09 09:05:38;;;;;;;51.22;37.55;;;25.00;97.50;;;;;;6126720;22;88953;-80
2023/09/09 09:08:04;;;;;;;49.63;34.40;;;25.20;96.80;;;;;;6125107;22;86164;-83
2023/09/09 09:10:32;;;;;;;38.35;29.77;;;25.40;97.00;;;;;;6142739;22;86640;-80
2023/09/09 09:12:58;;;;;;;40.67;29.65;;;25.50;96.60;;;;;;6143775;22;87964;-82
2023/09/09 09:15:24;;;;;;;44.53;30.60;;;25.70;96.60;;;;;;6144341;22;86585;-82
2023/09/09 09:17:54;;;;;;;31.30;24.05;;;25.90;95.70;;;;;;6124684;22;87565;-81
2023/09/09 09:20:25;;;;;;;36.58;26.60;;;26.10;94.70;;;;;;6125741;22;86503;-81
2023/09/09 09:22:51;;;;;;;30.92;23.58;;;26.30;94.80;;;;;;6141938;22;89384;-82
2023/09/09 09:25:20;;;;;;;36.65;26.33;;;26.50;93.90;;;;;;6144981;22;86295;-83
2023/09/09 09:27:46;;;;;;;33.15;24.67;;;26.60;92.90;;;;;;6142455;22;91945;-80
2023/09/09 09:30:12;;;;;;;29.75;23.98;;;26.80;93.00;;;;;;6142362;22;86614;-81
2023/09/09 09:32:42;;;;;;;37.30;26.42;;;27.00;92.40;;;;;;6126237;22;90281;-82
2023/09/09 09:35:21;;;;;;;30.85;21.80;;;27.20;92.10;;;;;;6122894;22;86939;-81
2023/09/09 09:38:12;;;;;;;33.78;24.83;;;27.40;92.00;;;;;;6143211;22;86619;-81
2023/09/09 09:40:39;;;;;;;28.45;22.95;;;27.60;91.30;;;;;;6126938;22;87058;-81
2023/09/09 09:43:04;;;;;;;28.02;20.85;;;27.70;88.70;;;;;;6140912;22;89818;-81
2023/09/09 09:45:30;;;;;;;26.63;18.92;;;27.90;90.70;;;;;;6145008;22;86507;-81
2023/09/09 09:47:59;;;;;;;30.10;22.92;;;28.10;90.90;;;;;;6143799;22;86097;-84
2023/09/09 09:50:32;;;;;;;28.35;19.23;;;28.30;90.00;;;;;;6129695;22;86729;-82
2023/09/09 09:53:01;;;;;;;;;;;28.50;90.30;;;;;;6123986;22;89445;-84
2023/09/09 09:55:28;;;;;;;31.38;23.50;;;28.70;90.20;;;;;;6150007;22;89726;-81
2023/09/09 09:58:04;;;;;;;30.92;24.10;;;28.80;85.70;;;;;;6149720;22;87645;-81
2023/09/09 10:00:30;;;;;;;22.33;16.77;;;29.00;83.90;;;;;;6147003;22;87017;-81
2023/09/09 10:02:58;;;;;;;37.28;23.45;;;29.10;86.70;;;;;;6145819;22;89853;-82
2023/09/09 10:05:26;;;;;;;33.05;21.60;;;29.30;88.20;;;;;;6147313;22;89815;-79
2023/09/09 10:08:25;;;;;;;31.63;24.08;;;29.50;88.30;;;;;;6148539;22;86980;-79
2023/09/09 10:11:03;;;;;;;41.20;26.63;;;29.80;85.10;;;;;;6140757;22;86284;-81
2023/09/09 10:13:29;;;;;;;35.67;25.17;;;30.10;83.70;;;;;;6147080;22;86682;-79
2023/09/09 10:15:55;;;;;;;31.73;23.75;;;30.00;82.30;;;;;;6148790;22;86229;-81
2023/09/09 10:18:24;;;;;;;29.10;21.52;;;30.10;82.80;;;;;;6148682;22;86343;-81
2023/09/09 10:20:53;;;;;;;32.80;22.52;;;30.20;81.60;;;;;;6148087;22;87022;-81
2023/09/09 10:23:21;;;;;;;40.85;22.50;;;30.20;79.80;;;;;;6147281;22;88620;-81
2023/09/09 10:25:48;;;;;;;22.75;12.48;;;30.30;83.00;;;;;;6146126;22;90286;-83
2023/09/09 10:28:16;;;;;;;20.13;14.82;;;30.60;85.20;;;;;;6147269;22;86383;-82
2023/09/09 10:30:42;;;;;;;21.83;15.48;;;30.80;84.20;;;;;;6146338;22;87169;-80
2023/09/09 10:33:10;;;;;;;21.98;14.48;;;31.10;82.70;;;;;;6144414;22;88589;-81
2023/09/09 10:35:37;;;;;;;29.73;19.67;;;31.40;81.40;;;;;;6128258;22;89106;-79
2023/09/09 10:38:04;;;;;;;20.63;15.70;;;31.50;76.90;;;;;;6126023;22;86322;-76
2023/09/09 10:40:31;;;;;;;23.25;16.60;;;31.70;79.10;;;;;;6148356;22;86202;-77
2023/09/09 10:42:57;;;;;;;18.45;12.00;;;31.80;78.40;;;;;;6143605;22;90254;-75
2023/09/09 10:45:35;;;;;;;21.52;16.30;;;32.00;83.20;;;;;;6142401;22;86327;-75
2023/09/09 10:48:03;;;;;;;22.98;15.18;;;32.20;77.40;;;;;;6140720;22;87299;-75
2023/09/09 10:50:43;;;;;;;29.58;18.45;;;32.30;78.00;;;;;;6141718;22;87627;-78
2023/09/09 10:53:28;;;;;;;20.17;15.30;;;32.50;76.60;;;;;;6141536;22;90222;-75
2023/09/09 10:55:58;;;;;;;23.08;16.73;;;32.60;75.00;;;;;;6142569;22;86887;-76
2023/09/09 10:58:38;;;;;;;15.25;10.30;;;32.70;74.80;;;;;;6142194;22;86362;-76
2023/09/09 11:01:07;;;;;;;21.40;14.13;;;32.90;78.70;;;;;;6142682;22;86580;-78
2023/09/09 11:03:47;;;;;;;19.00;12.85;;;33.00;73.60;;;;;;6142446;22;89380;-76
2023/09/09 11:06:39;;;;;;;16.65;11.93;;;33.00;73.10;;;;;;6167867;22;89273;-75
2023/09/09 11:09:10;;;;;;;17.02;11.57;;;33.20;74.00;;;;;;6143229;22;86922;-76
2023/09/09 11:11:42;;;;;;;14.68;8.98;;;33.40;73.00;;;;;;6143789;22;86165;-77
2023/09/09 11:18:11;;;;;;;15.45;9.32;;;33.90;76.80;;;;;;6140825;22;85892;-78
2023/09/09 11:20:37;;;;;;;13.60;9.57;;;34.30;67.70;;;;;;6142369;22;86593;-77
2023/09/09 11:23:03;;;;;;;12.38;7.72;;;34.40;69.60;;;;;;6134008;22;86340;-81
2023/09/09 11:25:29;;;;;;;10.40;6.35;;;34.70;71.60;;;;;;6115924;22;87094;-76
2023/09/09 11:27:56;;;;;;;13.27;8.23;;;34.80;71.80;;;;;;6142051;22;89550;-76
2023/09/09 11:30:24;;;;;;;8.95;5.57;;;35.10;70.10;;;;;;6140690;22;86616;-79
2023/09/09 11:32:49;;;;;;;16.52;7.20;;;35.30;74.30;;;;;;6123154;22;86400;-75
2023/09/09 11:35:16;;;;;;;14.13;10.18;;;35.50;69.90;;;;;;6111407;23;89419;-78
2023/09/09 11:37:42;;;;;;;11.80;8.82;;;35.60;59.70;;;;;;6116974;22;86844;-76
2023/09/09 11:40:08;;;;;;;24.45;9.95;;;35.40;62.20;;;;;;6144959;22;86696;-76
2023/09/09 11:42:37;;;;;;;15.10;9.77;;;35.40;63.70;;;;;;6141887;22;86467;-78
2023/09/09 11:45:16;;;;;;;17.17;9.88;;;35.40;59.60;;;;;;6118563;22;88915;-80
2023/09/09 11:47:41;;;;;;;14.55;10.00;;;35.20;58.70;;;;;;6129868;22;86700;-81
2023/09/09 11:50:07;;;;;;;13.73;9.23;;;35.00;57.50;;;;;;6141510;22;86780;-77
2023/09/09 11:52:33;;;;;;;12.30;8.38;;;35.00;57.90;;;;;;6141702;22;86477;-77
2023/09/09 11:54:59;;;;;;;18.63;8.55;;;34.90;59.50;;;;;;6143242;22;89348;-77
2023/09/09 11:57:24;;;;;;;14.25;8.30;;;34.70;57.40;;;;;;6144234;22;87401;-79
2023/09/09 11:59:51;;;;;;;13.18;6.90;;;34.50;59.00;;;;;;6123383;22;85994;-78
2023/09/09 12:02:27;;;;;;;11.73;5.80;;;34.60;62.10;;;;;;6126971;22;86354;-76
2023/09/09 12:04:57;;;;;;;15.23;7.13;;;34.80;62.10;;;;;;6142136;22;86860;-77
2023/09/09 12:07:32;;;;;;;8.25;5.82;;;35.00;59.60;;;;;;6142536;22;86919;-77
2023/09/09 12:09:59;;;;;;;7.57;5.65;;;35.30;63.20;;;;;;6143819;22;86632;-77
2023/09/09 12:12:26;;;;;;;10.48;5.85;;;35.60;63.70;;;;;;6143970;22;86280;-78
2023/09/09 12:14:54;;;;;;;12.25;8.00;;;36.00;61.10;;;;;;6122584;22;89533;-80
2023/09/09 12:17:20;;;;;;;9.63;4.72;;;36.20;58.60;;;;;;6125206;22;86810;-78
2023/09/09 12:19:58;;;;;;;8.73;5.00;;;36.30;62.00;;;;;;6143645;22;86283;-77
2023/09/09 12:22:35;;;;;;;14.40;6.15;;;36.50;58.50;;;;;;6142972;22;86731;-78
2023/09/09 12:25:05;;;;;;;9.07;5.10;;;36.70;55.90;;;;;;6142475;22;88478;-81
2023/09/09 12:27:44;;;;;;;9.73;5.43;;;36.60;57.50;;;;;;6151859;22;88593;-77
2023/09/09 12:30:36;;;;;;;10.15;4.20;;;36.80;59.70;;;;;;6141545;22;86618;-78
2023/09/09 12:33:11;;;;;;;10.35;4.40;;;37.10;60.10;;;;;;6143924;22;86432;-79
2023/09/09 12:35:44;;;;;;;11.52;4.55;;;37.30;58.00;;;;;;6143502;22;87371;-79
2023/09/09 12:38:11;;;;;;;8.57;3.78;;;37.40;52.30;;;;;;6142805;22;86968;-78